createdAt,value
2022-12-12T00:00:10.631Z,1.74
2022-12-12T00:02:39.832Z,1.74
2022-12-12T00:05:10.071Z,1.73
2022-12-12T00:07:38.580Z,1.72
2022-12-12T00:10:07.577Z,1.73
2022-12-12T00:12:35.814Z,1.72
2022-12-12T00:15:06.539Z,1.73
2022-12-12T00:17:34.763Z,1.74
2022-12-12T00:20:03.173Z,1.73
2022-12-12T00:22:31.361Z,1.75
2022-12-12T00:24:59.511Z,1.79
2022-12-12T00:27:27.673Z,1.85
2022-12-12T00:29:56.204Z,1.84
2022-12-12T00:32:25.797Z,1.87
2022-12-12T00:34:53.924Z,1.87
2022-12-12T00:37:22.068Z,1.86
2022-12-12T00:39:50.653Z,1.90
2022-12-12T00:42:18.815Z,1.81
2022-12-12T00:44:46.918Z,1.81
2022-12-12T00:47:15.093Z,1.83
2022-12-12T00:49:44.658Z,1.84
2022-12-12T00:52:12.833Z,1.84
2022-12-12T00:54:42.767Z,1.82
2022-12-12T00:57:10.907Z,1.82
2022-12-12T00:59:39.169Z,1.79
2022-12-12T01:02:07.372Z,1.79
2022-12-12T01:04:35.608Z,1.78
2022-12-12T01:07:05.233Z,1.80
2022-12-12T01:09:34.400Z,1.79
2022-12-12T01:12:02.748Z,1.75
2022-12-12T01:14:30.915Z,1.71
2022-12-12T01:16:59.087Z,1.72
2022-12-12T01:19:27.334Z,1.70
2022-12-12T01:21:55.793Z,1.72
2022-12-12T01:24:25.352Z,1.72
2022-12-12T01:26:53.585Z,1.72
2022-12-12T01:29:21.794Z,1.74
2022-12-12T01:31:49.908Z,1.72
2022-12-12T01:34:18.163Z,1.71
2022-12-12T01:36:46.317Z,1.67
2022-12-12T01:39:14.505Z,1.65
2022-12-12T01:41:45.181Z,1.68
2022-12-12T01:44:42.761Z,1.68
2022-12-12T01:47:11.514Z,1.62
2022-12-12T01:49:39.947Z,1.62
2022-12-12T01:52:12.335Z,1.64
2022-12-12T01:54:43.938Z,1.65
2022-12-12T01:57:15.083Z,1.71
2022-12-12T01:59:45.865Z,1.61
2022-12-12T02:02:14.326Z,1.63
2022-12-12T02:04:43.452Z,1.61
2022-12-12T02:07:11.930Z,1.60
2022-12-12T02:09:40.461Z,1.61
2022-12-12T02:12:08.697Z,1.70
2022-12-12T02:14:39.812Z,1.69
2022-12-12T02:17:29.175Z,1.69
2022-12-12T02:20:33.710Z,1.66
2022-12-12T02:23:31.017Z,1.68
2022-12-12T02:26:16.774Z,1.68
2022-12-12T02:29:17.240Z,1.68
2022-12-12T02:31:53.793Z,1.76
2022-12-12T02:34:28.307Z,1.72
2022-12-12T02:37:09.318Z,1.67
2022-12-12T02:39:48.089Z,1.69
2022-12-12T02:42:25.899Z,1.69
2022-12-12T02:44:58.078Z,1.71
2022-12-12T02:47:31.865Z,1.63
2022-12-12T02:50:06.303Z,1.68
2022-12-12T02:52:35.429Z,1.70
2022-12-12T02:55:03.591Z,1.66
2022-12-12T02:57:31.768Z,1.57
2022-12-12T03:00:03.710Z,1.52
2022-12-12T03:03:35.167Z,1.47
2022-12-12T03:06:41.011Z,1.41
2022-12-12T03:09:17.579Z,1.41
2022-12-12T03:11:58.679Z,1.41
2022-12-12T03:14:36.787Z,1.44
2022-12-12T03:17:11.939Z,1.46
2022-12-12T03:19:48.456Z,1.46
2022-12-12T03:22:25.977Z,1.60
2022-12-12T03:25:02.421Z,1.62
2022-12-12T03:27:36.016Z,1.60
2022-12-12T03:30:07.281Z,1.60
2022-12-12T03:32:37.826Z,1.59
2022-12-12T03:35:13.628Z,1.60
2022-12-12T03:37:47.705Z,1.59
2022-12-12T03:40:20.663Z,1.62
2022-12-12T03:42:51.434Z,1.62
2022-12-12T03:45:25.039Z,1.62
2022-12-12T03:48:00.179Z,1.64
2022-12-12T03:50:34.625Z,1.61
2022-12-12T03:53:10.336Z,1.60
2022-12-12T03:55:44.327Z,1.56
2022-12-12T03:58:18.439Z,1.57
2022-12-12T04:00:50.067Z,1.52
2022-12-12T04:03:30.290Z,1.49
2022-12-12T04:06:23.082Z,1.45
2022-12-12T04:09:09.918Z,1.45
2022-12-12T04:12:00.752Z,1.48
2022-12-12T04:14:43.514Z,1.45
2022-12-12T04:17:16.703Z,1.52
2022-12-12T04:20:13.181Z,1.50
2022-12-12T04:23:05.732Z,1.51
2022-12-12T04:25:59.879Z,1.51
2022-12-12T04:28:30.385Z,1.49
2022-12-12T04:31:03.237Z,1.50
2022-12-12T04:33:38.558Z,1.50
2022-12-12T04:36:13.170Z,1.48
2022-12-12T04:38:44.167Z,1.47
2022-12-12T04:41:14.606Z,1.48
2022-12-12T04:43:47.838Z,1.50
2022-12-12T04:46:19.469Z,1.50
2022-12-12T04:48:53.748Z,1.52
2022-12-12T04:51:27.932Z,1.51
2022-12-12T04:54:01.494Z,1.52
2022-12-12T04:56:32.002Z,1.52
2022-12-12T04:59:00.330Z,1.51
2022-12-12T05:01:36.824Z,1.51
2022-12-12T05:04:09.096Z,1.49
2022-12-12T05:06:44.552Z,1.38
2022-12-12T05:09:17.649Z,1.32
2022-12-12T05:11:45.858Z,1.32
2022-12-12T05:14:17.070Z,1.31
2022-12-12T05:16:48.703Z,1.28
2022-12-12T05:19:16.879Z,1.33
2022-12-12T05:21:45.237Z,1.35
2022-12-12T05:24:14.838Z,1.35
2022-12-12T05:26:42.908Z,1.34
2022-12-12T05:29:11.084Z,1.36
2022-12-12T05:31:39.160Z,1.37
2022-12-12T05:34:07.232Z,1.41
2022-12-12T05:36:35.428Z,1.43
2022-12-12T05:39:03.650Z,1.44
2022-12-12T05:41:33.353Z,1.44
2022-12-12T05:44:01.593Z,1.44
2022-12-12T05:46:29.896Z,1.45
2022-12-12T05:48:58.047Z,1.40
2022-12-12T05:51:26.186Z,1.40
2022-12-12T05:53:54.413Z,1.37
2022-12-12T05:56:22.483Z,1.38
2022-12-12T05:58:52.088Z,1.40
2022-12-12T06:01:20.162Z,1.39
2022-12-12T06:03:48.452Z,1.40
2022-12-12T06:06:16.589Z,1.41
2022-12-12T06:08:44.812Z,1.43
2022-12-12T06:11:13.836Z,1.39
2022-12-12T06:13:42.054Z,1.35
2022-12-12T06:16:14.421Z,1.37
2022-12-12T06:18:42.651Z,1.51
2022-12-12T06:21:14.048Z,1.60
2022-12-12T06:23:43.687Z,1.60
2022-12-12T06:26:13.846Z,1.59
2022-12-12T06:28:42.339Z,1.61
2022-12-12T06:31:13.290Z,1.60
2022-12-12T06:33:42.779Z,1.60
2022-12-12T06:36:16.813Z,1.61
2022-12-12T06:38:45.061Z,1.60
2022-12-12T06:41:15.787Z,1.62
2022-12-12T06:43:43.880Z,1.65
2022-12-12T06:46:19.601Z,1.58
2022-12-12T06:48:48.142Z,1.53
2022-12-12T06:51:17.912Z,1.51
2022-12-12T06:53:46.307Z,1.49
2022-12-12T06:56:16.255Z,1.44
2022-12-12T06:58:44.689Z,1.45
2022-12-12T07:01:15.452Z,1.46
2022-12-12T07:03:43.801Z,1.45
2022-12-12T07:06:12.041Z,1.48
2022-12-12T07:08:42.026Z,1.50
2022-12-12T07:11:13.463Z,1.52
2022-12-12T07:13:41.618Z,1.51
2022-12-12T07:16:10.468Z,1.50
2022-12-12T07:18:40.528Z,1.50
2022-12-12T07:21:13.082Z,1.52
2022-12-12T07:23:41.338Z,1.49
2022-12-12T07:26:13.376Z,1.47
2022-12-12T07:28:41.821Z,1.49
2022-12-12T07:31:11.843Z,1.51
2022-12-12T07:33:44.519Z,1.50
2022-12-12T07:36:13.730Z,1.46
2022-12-12T07:38:42.422Z,1.46
2022-12-12T07:41:16.698Z,1.44
2022-12-12T07:43:46.372Z,1.41
2022-12-12T07:46:17.279Z,1.45
2022-12-12T07:48:47.663Z,1.44
2022-12-12T07:51:16.557Z,1.46
2022-12-12T07:53:44.763Z,1.45
2022-12-12T07:56:15.554Z,1.43
2022-12-12T07:58:43.943Z,1.46
2022-12-12T08:01:14.880Z,1.45
2022-12-12T08:03:43.677Z,1.44
2022-12-12T08:06:14.372Z,1.45
2022-12-12T08:08:48.200Z,1.45
2022-12-12T08:11:18.685Z,1.45
2022-12-12T08:13:47.510Z,1.45
2022-12-12T08:16:18.425Z,1.45
2022-12-12T08:18:47.295Z,1.45
2022-12-12T08:21:25.075Z,1.46
2022-12-12T08:23:57.058Z,1.43
2022-12-12T08:26:26.077Z,1.39
2022-12-12T08:28:54.368Z,1.38
2022-12-12T08:31:23.441Z,1.41
2022-12-12T08:33:51.848Z,1.43
2022-12-12T08:36:23.310Z,1.43
2022-12-12T08:38:52.209Z,1.45
2022-12-12T08:41:21.192Z,1.46
2022-12-12T08:43:50.292Z,1.46
2022-12-12T08:46:19.907Z,1.49
2022-12-12T08:48:48.669Z,1.50
2022-12-12T08:51:18.511Z,1.50
2022-12-12T08:53:49.126Z,1.49
2022-12-12T08:56:18.312Z,1.49
2022-12-12T08:58:46.874Z,1.50
2022-12-12T09:01:16.767Z,1.52
2022-12-12T09:03:44.958Z,1.52
2022-12-12T09:06:14.436Z,1.56
2022-12-12T09:08:43.599Z,1.57
2022-12-12T09:11:14.021Z,1.57
2022-12-12T09:13:42.419Z,1.59
2022-12-12T09:16:11.404Z,1.62
2022-12-12T09:18:46.353Z,1.64
2022-12-12T09:21:17.086Z,1.66
2022-12-12T09:23:46.292Z,1.67
2022-12-12T09:26:15.884Z,1.68
2022-12-12T09:28:43.939Z,1.71
2022-12-12T09:31:14.050Z,1.71
2022-12-12T09:33:43.081Z,1.73
2022-12-12T09:36:12.225Z,1.78
2022-12-12T09:38:40.949Z,1.81
2022-12-12T09:41:16.698Z,1.83
2022-12-12T09:43:52.817Z,1.85
2022-12-12T09:46:33.359Z,1.86
2022-12-12T09:49:23.810Z,1.91
2022-12-12T09:51:53.446Z,1.94
2022-12-12T09:54:23.901Z,1.97
2022-12-12T09:57:12.165Z,1.96
2022-12-12T09:59:45.587Z,1.99
2022-12-12T10:02:29.707Z,1.99
2022-12-12T10:05:03.093Z,2.02
2022-12-12T10:07:40.196Z,2.04
2022-12-12T10:10:21.906Z,2.03
2022-12-12T10:12:53.923Z,2.05
2022-12-12T10:15:30.884Z,2.09
2022-12-12T10:18:01.781Z,2.08
2022-12-12T10:20:32.263Z,2.12
2022-12-12T10:23:03.758Z,2.14
2022-12-12T10:25:42.776Z,2.15
2022-12-12T10:28:15.521Z,2.18
2022-12-12T10:31:10.722Z,2.15
2022-12-12T10:33:52.500Z,2.16
2022-12-12T10:36:29.823Z,2.21
2022-12-12T10:39:14.294Z,2.18
2022-12-12T10:41:48.351Z,2.20
2022-12-12T10:44:32.491Z,2.24
2022-12-12T10:47:04.508Z,2.23
2022-12-12T10:49:33.626Z,2.27
2022-12-12T10:52:04.964Z,2.16
2022-12-12T10:54:34.994Z,2.02
2022-12-12T10:57:11.097Z,2.04
2022-12-12T10:59:45.782Z,2.18
2022-12-12T11:02:38.696Z,2.21
2022-12-12T11:05:18.090Z,2.27
2022-12-12T11:07:49.694Z,2.15
2022-12-12T11:10:32.141Z,2.27
2022-12-12T11:13:04.983Z,2.26
2022-12-12T11:15:42.414Z,2.32
2022-12-12T11:18:16.557Z,2.33
2022-12-12T11:20:47.927Z,2.36
2022-12-12T11:23:18.592Z,2.32
2022-12-12T11:25:47.445Z,2.38
2022-12-12T11:28:23.355Z,2.42
2022-12-12T11:30:59.005Z,2.47
2022-12-12T11:33:33.736Z,2.49
2022-12-12T11:36:06.564Z,2.55
2022-12-12T11:38:41.214Z,2.61
2022-12-12T11:41:11.219Z,2.58
2022-12-12T11:43:53.528Z,2.51
2022-12-12T11:46:26.407Z,2.54
2022-12-12T11:49:03.054Z,2.56
2022-12-12T11:51:38.255Z,2.57
2022-12-12T11:54:13.196Z,2.61
2022-12-12T11:56:54.217Z,2.62
2022-12-12T11:59:33.674Z,2.70
2022-12-12T12:02:21.915Z,2.77
2022-12-12T12:04:56.668Z,2.79
2022-12-12T12:07:46.143Z,2.80
2022-12-12T12:10:24.244Z,2.86
2022-12-12T12:13:01.765Z,2.89
2022-12-12T12:15:37.210Z,2.87
2022-12-12T12:18:32.056Z,2.75
2022-12-12T12:21:27.754Z,2.70
2022-12-12T12:24:07.405Z,2.75
2022-12-12T12:26:41.289Z,2.81
2022-12-12T12:29:31.036Z,2.83
2022-12-12T12:32:09.724Z,2.84
2022-12-12T12:34:50.029Z,2.84
2022-12-12T12:37:33.034Z,2.81
2022-12-12T12:40:15.668Z,2.83
2022-12-12T12:42:59.819Z,2.79
2022-12-12T12:45:37.735Z,2.79
2022-12-12T12:48:16.828Z,2.74
2022-12-12T12:50:52.103Z,2.74
2022-12-12T12:53:30.293Z,2.78
2022-12-12T12:56:04.178Z,2.76
2022-12-12T12:58:39.858Z,2.78
2022-12-12T13:01:12.919Z,2.79
2022-12-12T13:03:47.392Z,2.93
2022-12-12T13:06:22.531Z,3.00
2022-12-12T13:08:59.020Z,3.02
2022-12-12T13:11:38.753Z,3.05
2022-12-12T13:14:14.553Z,3.06
2022-12-12T13:16:44.423Z,3.08
2022-12-12T13:19:17.147Z,3.10
2022-12-12T13:21:54.029Z,3.13
2022-12-12T13:24:27.271Z,3.13
2022-12-12T13:27:02.788Z,3.13
2022-12-12T13:29:40.713Z,3.12
2022-12-12T13:32:39.848Z,3.10
2022-12-12T13:35:12.996Z,3.04
2022-12-12T13:37:49.619Z,3.01
2022-12-12T13:40:28.354Z,3.00
2022-12-12T13:43:01.647Z,3.01
2022-12-12T13:45:42.974Z,3.01
2022-12-12T13:48:41.435Z,2.96
2022-12-12T13:51:31.410Z,2.91
2022-12-12T13:54:51.296Z,2.89
2022-12-12T13:57:26.982Z,3.00
2022-12-12T14:00:19.853Z,3.01
2022-12-12T14:03:01.484Z,2.99
2022-12-12T14:05:33.104Z,2.99
2022-12-12T14:08:20.529Z,2.96
2022-12-12T14:10:56.632Z,2.92
2022-12-12T14:13:50.792Z,2.95
2022-12-12T14:16:23.142Z,2.95
2022-12-12T14:19:04.275Z,2.96
2022-12-12T14:21:45.200Z,2.93
2022-12-12T14:24:48.161Z,2.89
2022-12-12T14:27:16.813Z,2.84
2022-12-12T14:29:47.234Z,2.83
2022-12-12T14:32:41.895Z,2.83
2022-12-12T14:35:29.254Z,2.81
2022-12-12T14:38:03.754Z,2.80
2022-12-12T14:40:34.991Z,2.79
2022-12-12T14:43:19.208Z,2.82
2022-12-12T14:45:57.350Z,2.81
2022-12-12T14:48:29.927Z,2.81
2022-12-12T14:51:02.844Z,2.81
2022-12-12T14:53:35.290Z,2.79
2022-12-12T14:56:08.711Z,2.80
2022-12-12T14:58:41.316Z,2.77
2022-12-12T15:01:11.374Z,2.76
2022-12-12T15:03:44.515Z,2.72
2022-12-12T15:06:30.564Z,2.70
2022-12-12T15:09:08.429Z,2.67
2022-12-12T15:11:37.158Z,2.65
2022-12-12T15:14:05.787Z,2.61
2022-12-12T15:16:47.669Z,2.55
2022-12-12T15:19:20.567Z,2.59
2022-12-12T15:21:49.438Z,2.60
2022-12-12T15:24:23.360Z,2.62
2022-12-12T15:26:53.380Z,2.63
2022-12-12T15:29:24.932Z,2.63
2022-12-12T15:32:00.506Z,2.62
2022-12-12T15:34:43.454Z,2.61
2022-12-12T15:37:23.258Z,2.61
2022-12-12T15:40:17.631Z,2.61
2022-12-12T15:42:48.641Z,2.57
2022-12-12T15:45:20.971Z,2.58
2022-12-12T15:47:53.264Z,2.54
2022-12-12T15:50:23.619Z,2.55
2022-12-12T15:53:02.593Z,2.56
2022-12-12T15:55:31.611Z,2.56
2022-12-12T15:58:00.124Z,2.57
2022-12-12T16:00:35.526Z,2.58
2022-12-12T16:03:20.294Z,2.59
2022-12-12T16:06:03.213Z,2.61
2022-12-12T16:08:40.507Z,2.60
2022-12-12T16:11:32.883Z,2.62
2022-12-12T16:14:01.438Z,2.60
2022-12-12T16:16:53.713Z,2.62
2022-12-12T16:19:46.575Z,2.60
2022-12-12T16:22:21.562Z,2.60
2022-12-12T16:24:51.802Z,2.58
2022-12-12T16:27:20.380Z,2.55
2022-12-12T16:29:49.119Z,2.53
2022-12-12T16:32:19.359Z,2.52
2022-12-12T16:34:49.037Z,2.49
2022-12-12T16:37:19.437Z,2.48
2022-12-12T16:39:47.650Z,2.46
2022-12-12T16:42:17.048Z,2.41
2022-12-12T16:44:45.705Z,2.39
2022-12-12T16:47:17.243Z,2.37
2022-12-12T16:49:45.582Z,2.34
2022-12-12T16:52:15.851Z,2.29
2022-12-12T16:54:52.585Z,2.29
2022-12-12T16:57:22.015Z,2.29
2022-12-12T16:59:50.397Z,2.29
2022-12-12T17:02:21.476Z,2.27
2022-12-12T17:04:50.188Z,2.26
2022-12-12T17:07:20.245Z,2.24
2022-12-12T17:09:48.418Z,2.27
2022-12-12T17:12:16.537Z,2.29
2022-12-12T17:14:44.778Z,2.30
2022-12-12T17:17:13.339Z,2.29
2022-12-12T17:19:41.412Z,2.30
2022-12-12T17:22:09.479Z,2.30
2022-12-12T17:24:39.044Z,2.29
2022-12-12T17:27:07.135Z,2.29
2022-12-12T17:29:35.304Z,2.27
2022-12-12T17:32:06.477Z,2.26
2022-12-12T17:34:34.728Z,2.26
2022-12-12T17:37:02.965Z,2.24
2022-12-12T17:39:31.030Z,2.24
2022-12-12T17:42:00.561Z,2.24
2022-12-12T17:44:28.799Z,2.23
2022-12-12T17:46:56.838Z,2.22
2022-12-12T17:49:25.030Z,2.21
2022-12-12T17:51:53.297Z,2.12
2022-12-12T17:54:21.873Z,2.25
2022-12-12T17:56:50.900Z,2.14
2022-12-12T17:59:20.892Z,2.11
2022-12-12T18:01:56.908Z,2.11
2022-12-12T18:04:28.539Z,2.16
2022-12-12T18:06:56.923Z,2.17
2022-12-12T18:09:26.112Z,2.18
2022-12-12T18:11:54.259Z,2.22
2022-12-12T18:14:23.833Z,2.25
2022-12-12T18:16:53.316Z,2.41
2022-12-12T18:19:23.233Z,2.43
2022-12-12T18:22:01.006Z,2.42
2022-12-12T18:24:30.544Z,2.43
2022-12-12T18:27:00.135Z,2.44
2022-12-12T18:29:29.702Z,2.42
2022-12-12T18:31:57.865Z,2.39
2022-12-12T18:34:26.450Z,2.30
2022-12-12T18:36:54.603Z,2.30
2022-12-12T18:39:22.864Z,2.44
2022-12-12T18:41:52.187Z,2.47
2022-12-12T18:44:20.340Z,2.47
2022-12-12T18:46:50.732Z,2.49
2022-12-12T18:49:19.241Z,2.50
2022-12-12T18:51:48.036Z,2.51
2022-12-12T18:54:17.162Z,2.48
2022-12-12T18:56:46.586Z,2.52
2022-12-12T18:59:15.073Z,2.51
2022-12-12T19:01:43.753Z,2.50
2022-12-12T19:04:20.847Z,2.46
2022-12-12T19:06:51.243Z,2.42
2022-12-12T19:09:20.534Z,2.41
2022-12-12T19:11:49.171Z,2.41
2022-12-12T19:14:18.329Z,2.40
2022-12-12T19:16:46.989Z,2.39
2022-12-12T19:19:16.684Z,2.38
2022-12-12T19:21:46.410Z,2.36
2022-12-12T19:24:14.568Z,2.36
2022-12-12T19:26:44.470Z,2.33
2022-12-12T19:29:14.264Z,2.30
2022-12-12T19:31:42.864Z,2.26
2022-12-12T19:34:13.315Z,2.29
2022-12-12T19:36:43.680Z,2.25
2022-12-12T19:39:13.806Z,2.23
2022-12-12T19:41:42.606Z,2.24
2022-12-12T19:44:13.157Z,2.28
2022-12-12T19:46:43.226Z,2.28
2022-12-12T19:49:13.729Z,2.30
2022-12-12T19:51:45.026Z,2.29
2022-12-12T19:54:14.434Z,2.26
2022-12-12T19:56:42.636Z,2.30
2022-12-12T19:59:13.380Z,2.28
2022-12-12T20:01:42.143Z,2.27
2022-12-12T20:04:15.876Z,2.30
2022-12-12T20:06:46.533Z,2.33
2022-12-12T20:09:17.709Z,2.37
2022-12-12T20:11:46.057Z,2.38
2022-12-12T20:14:16.459Z,2.41
2022-12-12T20:16:45.178Z,2.39
2022-12-12T20:19:14.307Z,2.38
2022-12-12T20:22:03.318Z,2.39
2022-12-12T20:24:33.027Z,2.37
2022-12-12T20:27:03.244Z,2.35
2022-12-12T20:29:31.729Z,2.34
2022-12-12T20:32:01.387Z,2.34
2022-12-12T20:34:30.259Z,2.30
2022-12-12T20:36:59.766Z,2.26
2022-12-12T20:39:28.173Z,2.20
2022-12-12T20:41:57.060Z,2.09
2022-12-12T20:44:25.861Z,2.22
2022-12-12T20:46:54.490Z,2.18
2022-12-12T20:49:24.799Z,2.17
2022-12-12T20:51:56.460Z,2.18
2022-12-12T20:54:28.893Z,2.14
2022-12-12T20:56:57.699Z,2.13
2022-12-12T20:59:26.073Z,2.11
2022-12-12T21:01:54.598Z,2.10
2022-12-12T21:04:24.353Z,2.08
2022-12-12T21:06:52.932Z,2.09
2022-12-12T21:09:25.803Z,2.07
2022-12-12T21:11:59.055Z,2.06
2022-12-12T21:14:30.889Z,2.03
2022-12-12T21:16:59.129Z,2.01
2022-12-12T21:19:27.626Z,1.99
2022-12-12T21:21:56.232Z,1.99
2022-12-12T21:24:24.608Z,2.02
2022-12-12T21:26:52.862Z,2.02
2022-12-12T21:29:22.364Z,2.02
2022-12-12T21:31:52.339Z,2.02
2022-12-12T21:34:22.318Z,2.03
2022-12-12T21:36:53.857Z,2.03
2022-12-12T21:39:23.235Z,2.02
2022-12-12T21:41:51.801Z,1.99
2022-12-12T21:44:21.005Z,1.97
2022-12-12T21:46:50.659Z,1.93
2022-12-12T21:49:27.773Z,1.87
2022-12-12T21:51:58.048Z,1.84
2022-12-12T21:54:26.861Z,1.85
2022-12-12T21:56:55.615Z,1.82
2022-12-12T21:59:24.652Z,1.78
2022-12-12T22:01:55.800Z,1.77
2022-12-12T22:04:23.762Z,1.72
2022-12-12T22:06:51.898Z,1.68
2022-12-12T22:09:20.155Z,1.67
2022-12-12T22:12:03.621Z,1.64
2022-12-12T22:14:33.896Z,1.63
2022-12-12T22:17:04.191Z,1.61
2022-12-12T22:19:32.644Z,1.57
2022-12-12T22:22:00.929Z,1.57
2022-12-12T22:24:29.201Z,1.55
2022-12-12T22:26:57.282Z,1.54
2022-12-12T22:29:25.493Z,1.53
2022-12-12T22:31:53.817Z,1.56
2022-12-12T22:34:24.737Z,1.59
2022-12-12T22:36:53.673Z,1.61
2022-12-12T22:39:24.113Z,1.63
2022-12-12T22:41:52.424Z,1.69
2022-12-12T22:44:22.973Z,1.86
2022-12-12T22:46:53.132Z,1.92
2022-12-12T22:49:26.710Z,1.95
2022-12-12T22:51:55.786Z,1.93
2022-12-12T22:54:24.128Z,1.98
2022-12-12T22:56:52.343Z,2.03
2022-12-12T22:59:20.549Z,2.05
2022-12-12T23:01:48.723Z,2.07
2022-12-12T23:04:16.959Z,2.10
2022-12-12T23:06:46.787Z,2.10
2022-12-12T23:09:17.414Z,2.12
2022-12-12T23:11:46.367Z,2.13
2022-12-12T23:14:16.551Z,2.17
2022-12-12T23:16:45.204Z,2.18
2022-12-12T23:19:16.212Z,2.18
2022-12-12T23:21:44.570Z,2.15
2022-12-12T23:24:15.231Z,2.14
2022-12-12T23:26:44.068Z,2.09
2022-12-12T23:29:16.495Z,2.09
2022-12-12T23:31:44.931Z,2.06
2022-12-12T23:34:18.248Z,2.09
2022-12-12T23:36:46.423Z,2.13
2022-12-12T23:39:16.134Z,2.13
2022-12-12T23:41:44.508Z,2.13
2022-12-12T23:44:14.498Z,2.14
2022-12-12T23:46:43.295Z,2.15
2022-12-12T23:49:16.671Z,2.17
2022-12-12T23:51:46.345Z,2.16
2022-12-12T23:54:18.065Z,2.19
2022-12-12T23:56:47.101Z,2.15
2022-12-12T23:59:18.206Z,2.13
